Time;durP1;ratioP1;P1;durP2;ratioP2;P2;SDS_P1;SDS_P2;PMS_P1;PMS_P2;Temp;Humidity;BMP_temperature;BMP_pressure;BME280_temperature;BME280_humidity;BME280_pressure;Samples;Min_cycle;Max_cycle;Signal;HPM_P1;HPM_P2
2024/02/25 00:02:41;;;;;;;6.18;2.70;;;10.60;49.30;;;;;;6298410;28;20034;-74
2024/02/25 00:05:43;;;;;;;4.32;2.90;;;10.60;49.30;;;;;;6307164;28;20030;-77
2024/02/25 00:08:45;;;;;;;7.68;2.47;;;10.60;49.30;;;;;;6308899;28;20028;-77
2024/02/25 00:11:46;;;;;;;5.03;2.72;;;10.60;49.30;;;;;;6308079;28;20175;-77
2024/02/25 00:14:47;;;;;;;5.90;2.88;;;10.60;49.30;;;;;;6289428;28;20360;-77
2024/02/25 00:17:48;;;;;;;5.53;3.03;;;10.50;49.40;;;;;;6289658;28;20020;-76
2024/02/25 00:20:49;;;;;;;9.27;3.45;;;10.50;50.10;;;;;;6306815;28;20044;-77
2024/02/25 00:23:49;;;;;;;6.45;2.85;;;10.50;49.50;;;;;;6282106;28;20020;-78
2024/02/25 00:26:50;;;;;;;3.15;1.90;;;10.50;49.60;;;;;;6290187;28;20063;-76
2024/02/25 00:29:51;;;;;;;8.13;3.65;;;10.40;49.60;;;;;;6306015;28;20879;-76
2024/02/25 00:32:52;;;;;;;4.50;2.67;;;10.40;49.60;;;;;;6290074;28;20680;-76
2024/02/25 00:35:53;;;;;;;11.38;2.53;;;10.40;49.70;;;;;;6290087;28;20047;-77
2024/02/25 00:38:55;;;;;;;9.65;3.10;;;10.40;49.90;;;;;;6293555;28;20032;-77
2024/02/25 00:41:58;;;;;;;6.53;2.92;;;10.40;50.00;;;;;;6291761;28;20020;-76
2024/02/25 00:45:00;;;;;;;9.30;4.30;;;10.40;50.00;;;;;;6304868;28;20036;-75
2024/02/25 00:48:00;;;;;;;6.80;2.60;;;10.40;50.20;;;;;;6308675;28;20023;-76
2024/02/25 00:51:01;;;;;;;7.45;3.15;;;10.40;50.20;;;;;;6295376;28;20104;-77
2024/02/25 00:54:02;;;;;;;6.35;2.20;;;10.40;50.20;;;;;;6298465;28;20016;-77
2024/02/25 00:57:04;;;;;;;5.93;2.08;;;10.40;50.20;;;;;;6307647;28;20032;-78
2024/02/25 01:00:09;;;;;;;3.05;1.73;;;10.40;50.10;;;;;;6293865;28;20048;-77
2024/02/25 01:03:09;;;;;;;4.55;1.75;;;10.40;50.10;;;;;;6295991;28;20096;-76
2024/02/25 01:06:10;;;;;;;6.88;2.13;;;10.30;50.00;;;;;;6302340;28;20020;-77
2024/02/25 01:09:13;;;;;;;2.33;1.17;;;10.20;50.00;;;;;;6310156;28;20043;-75
2024/02/25 01:12:15;;;;;;;5.38;2.72;;;10.20;50.20;;;;;;6310677;28;20105;-77
2024/02/25 01:15:16;;;;;;;5.38;2.67;;;10.10;50.40;;;;;;6293128;28;20030;-76
2024/02/25 01:18:17;;;;;;;15.90;3.10;;;10.10;50.60;;;;;;6290574;28;20115;-77
2024/02/25 01:21:19;;;;;;;7.38;3.42;;;10.10;50.80;;;;;;6293341;28;20107;-77
2024/02/25 01:24:21;;;;;;;6.47;3.17;;;10.10;50.90;;;;;;6302205;28;20024;-76
2024/02/25 01:27:23;;;;;;;7.32;3.20;;;10.10;51.10;;;;;;6286937;28;20089;-77
2024/02/25 01:30:24;;;;;;;4.90;2.67;;;10.10;51.30;;;;;;6305873;28;20050;-77
2024/02/25 01:33:25;;;;;;;5.80;2.20;;;10.00;51.30;;;;;;6305343;28;20020;-75
2024/02/25 01:36:27;;;;;;;8.40;3.95;;;10.00;51.40;;;;;;6292630;28;20072;-76
2024/02/25 01:39:29;;;;;;;7.45;2.67;;;10.00;51.60;;;;;;6309909;28;20063;-76
2024/02/25 01:42:30;;;;;;;8.45;2.97;;;9.90;51.80;;;;;;6308846;28;20101;-77
2024/02/25 01:45:31;;;;;;;11.35;2.70;;;9.90;51.90;;;;;;6279264;28;20084;-76
2024/02/25 01:48:33;;;;;;;11.18;3.42;;;9.90;51.90;;;;;;6301072;28;20027;-76
2024/02/25 01:51:35;;;;;;;7.18;2.97;;;9.90;52.00;;;;;;6285445;28;20024;-76
2024/02/25 01:54:40;;;;;;;6.72;3.03;;;9.80;52.10;;;;;;6294302;28;20111;-77
2024/02/25 01:57:41;;;;;;;6.53;2.40;;;9.90;52.20;;;;;;6301268;28;20042;-76
2024/02/25 02:00:57;;;;;;;9.43;2.95;;;9.90;52.30;;;;;;6308617;28;20051;-77
2024/02/25 02:03:58;;;;;;;7.72;3.40;;;9.80;52.30;;;;;;6308057;28;20487;-75
2024/02/25 02:07:02;;;;;;;7.75;3.10;;;9.80;52.30;;;;;;6282946;28;20028;-76
2024/02/25 02:10:08;;;;;;;8.23;2.97;;;9.90;52.30;;;;;;6276256;28;20063;-76
2024/02/25 02:13:09;;;;;;;6.43;3.22;;;9.90;52.30;;;;;;6294259;28;20031;-75
2024/02/25 02:16:13;;;;;;;12.27;3.55;;;9.90;52.40;;;;;;6300240;28;20525;-75
2024/02/25 02:19:14;;;;;;;4.53;2.25;;;9.90;52.40;;;;;;6309558;28;20058;-77
2024/02/25 02:22:17;;;;;;;5.85;2.58;;;9.80;52.50;;;;;;6309442;28;20028;-76
2024/02/25 02:25:18;;;;;;;6.25;2.65;;;9.80;52.70;;;;;;6300825;28;20101;-75
2024/02/25 02:28:20;;;;;;;4.40;2.05;;;9.80;52.80;;;;;;6293112;28;20516;-76
2024/02/25 02:31:22;;;;;;;4.93;2.70;;;9.70;52.80;;;;;;6287975;28;20746;-76
2024/02/25 02:34:24;;;;;;;6.68;2.72;;;9.80;53.00;;;;;;6289578;28;20024;-77
2024/02/25 02:37:27;;;;;;;12.90;2.35;;;9.80;52.80;;;;;;6294938;28;20034;-76
2024/02/25 02:40:27;;;;;;;3.67;2.13;;;9.80;53.30;;;;;;6288853;28;20052;-76
2024/02/25 02:43:29;;;;;;;5.80;2.33;;;9.80;52.70;;;;;;6305556;28;20028;-76
2024/02/25 02:46:30;;;;;;;7.07;2.53;;;9.80;52.80;;;;;;6289595;28;20066;-76
2024/02/25 02:49:34;;;;;;;3.83;1.92;;;9.80;52.80;;;;;;6289238;28;20067;-76
2024/02/25 02:52:36;;;;;;;8.75;2.65;;;9.80;52.80;;;;;;6308915;28;20027;-77
2024/02/25 02:55:37;;;;;;;6.28;2.47;;;9.70;52.80;;;;;;6282444;28;20029;-76
2024/02/25 02:58:39;;;;;;;4.70;1.98;;;9.70;52.80;;;;;;6282070;28;20036;-75
2024/02/25 03:01:40;;;;;;;6.05;2.40;;;9.70;52.90;;;;;;6282267;28;20052;-76
2024/02/25 03:04:42;;;;;;;2.72;1.63;;;9.70;53.00;;;;;;6303570;28;20517;-75
2024/02/25 03:07:48;;;;;;;5.78;2.65;;;9.60;53.00;;;;;;6283216;28;20063;-77
2024/02/25 03:10:51;;;;;;;9.02;2.63;;;9.60;53.00;;;;;;6309255;28;20221;-75
2024/02/25 03:13:53;;;;;;;7.05;1.65;;;9.60;53.00;;;;;;6279986;28;20457;-76
2024/02/25 03:16:54;;;;;;;5.03;1.90;;;9.60;53.10;;;;;;6297759;28;20040;-77
2024/02/25 03:19:55;;;;;;;6.78;3.17;;;9.60;53.10;;;;;;6283982;28;20110;-76
2024/02/25 03:22:55;;;;;;;4.93;2.65;;;9.70;53.10;;;;;;6286260;28;20036;-76
2024/02/25 03:25:56;;;;;;;5.38;2.97;;;9.70;53.00;;;;;;6275704;28;20028;-76
2024/02/25 03:29:00;;;;;;;4.32;2.20;;;9.70;53.00;;;;;;6291418;28;20452;-75
2024/02/25 03:32:02;;;;;;;6.15;2.58;;;9.70;53.00;;;;;;6304006;28;20039;-76
2024/02/25 03:35:03;;;;;;;4.47;2.25;;;9.70;53.00;;;;;;6307631;28;20111;-76
2024/02/25 03:38:04;;;;;;;3.40;2.13;;;9.70;53.00;;;;;;6303409;28;20104;-75
2024/02/25 03:41:05;;;;;;;1.80;1.40;;;9.70;52.90;;;;;;6290215;28;20082;-75
2024/02/25 03:44:08;;;;;;;4.03;1.98;;;9.70;53.00;;;;;;6305787;28;20028;-75
2024/02/25 03:47:09;;;;;;;6.85;2.22;;;9.60;53.20;;;;;;6306205;28;20024;-76
2024/02/25 03:50:12;;;;;;;5.80;2.35;;;9.60;53.40;;;;;;6305876;28;20041;-77
2024/02/25 03:53:15;;;;;;;3.45;2.00;;;9.60;53.40;;;;;;6295729;28;20024;-76
2024/02/25 03:56:18;;;;;;;7.05;2.42;;;9.60;53.50;;;;;;6295938;28;20036;-78
2024/02/25 03:59:19;;;;;;;6.30;2.50;;;9.50;53.50;;;;;;6305879;28;20135;-77
2024/02/25 04:02:20;;;;;;;3.85;2.38;;;9.50;53.60;;;;;;6297743;28;20016;-78
2024/02/25 04:05:24;;;;;;;4.03;2.83;;;9.50;53.60;;;;;;6309182;28;20373;-74
2024/02/25 04:08:27;;;;;;;2.83;1.70;;;9.50;53.60;;;;;;6303638;28;20076;-77
2024/02/25 04:11:28;;;;;;;4.50;2.33;;;9.50;53.60;;;;;;6310790;28;20497;-75
2024/02/25 04:14:30;;;;;;;7.50;2.40;;;9.50;53.60;;;;;;6297549;28;20035;-76
2024/02/25 04:17:33;;;;;;;3.50;2.05;;;9.50;53.60;;;;;;6293487;28;20023;-77
2024/02/25 04:20:35;;;;;;;12.98;3.05;;;9.50;53.70;;;;;;6311043;28;20027;-77
2024/02/25 04:23:36;;;;;;;6.88;2.92;;;9.50;53.60;;;;;;6295789;28;20097;-76
2024/02/25 04:26:42;;;;;;;7.40;2.38;;;9.50;53.70;;;;;;6311129;28;20056;-77
2024/02/25 04:29:43;;;;;;;4.25;2.47;;;9.40;53.70;;;;;;6303645;28;20024;-76
2024/02/25 04:32:46;;;;;;;6.50;2.33;;;9.40;53.90;;;;;;6295226;28;20032;-76
2024/02/25 04:35:48;;;;;;;3.55;2.10;;;9.30;54.10;;;;;;6295353;28;20044;-75
2024/02/25 04:38:49;;;;;;;3.42;1.83;;;9.20;54.20;;;;;;6306451;28;20392;-76
2024/02/25 04:41:50;;;;;;;3.72;1.88;;;9.20;54.30;;;;;;6293497;28;20016;-77
2024/02/25 04:44:51;;;;;;;7.47;1.92;;;9.20;54.50;;;;;;6292004;28;20194;-76
2024/02/25 04:47:52;;;;;;;2.63;1.67;;;9.20;54.60;;;;;;6294611;28;20496;-76
2024/02/25 04:50:55;;;;;;;3.05;1.90;;;9.20;54.70;;;;;;6310801;28;20032;-77
2024/02/25 04:53:57;;;;;;;18.08;2.42;;;9.10;54.80;;;;;;6292040;28;20068;-76
2024/02/25 04:57:00;;;;;;;8.82;2.40;;;9.10;54.90;;;;;;6287844;28;20112;-76
2024/02/25 05:00:05;;;;;;;4.78;2.60;;;9.10;55.00;;;;;;6272664;28;20032;-75
2024/02/25 05:03:07;;;;;;;3.47;1.90;;;9.00;55.10;;;;;;6311238;28;20097;-77
2024/02/25 05:06:08;;;;;;;3.50;2.10;;;9.00;55.20;;;;;;6302726;28;20017;-77
2024/02/25 05:09:10;;;;;;;2.20;1.38;;;8.90;55.30;;;;;;6291935;28;20117;-78
2024/02/25 05:12:16;;;;;;;3.78;2.05;;;8.90;55.40;;;;;;6295673;28;20495;-76
2024/02/25 05:15:17;;;;;;;3.67;1.63;;;8.90;55.50;;;;;;6284505;28;20115;-76
2024/02/25 05:18:18;;;;;;;7.55;2.22;;;8.90;55.60;;;;;;6282159;28;20021;-77
2024/02/25 05:21:19;;;;;;;2.47;1.83;;;8.80;55.90;;;;;;6302860;28;20024;-77
2024/02/25 05:24:19;;;;;;;2.85;2.08;;;8.80;55.90;;;;;;6284387;28;20091;-77
2024/02/25 05:27:22;;;;;;;11.35;2.72;;;8.80;56.10;;;;;;6302390;28;20028;-77
2024/02/25 05:30:22;;;;;;;3.20;2.13;;;8.70;56.30;;;;;;6252177;28;20121;-77
2024/02/25 05:33:24;;;;;;;7.82;2.53;;;8.70;56.40;;;;;;6285367;28;20051;-77
2024/02/25 05:36:25;;;;;;;1.48;1.23;;;8.60;56.40;;;;;;6296571;28;20349;-76
2024/02/25 05:39:26;;;;;;;3.75;1.98;;;8.60;56.50;;;;;;6300988;28;20077;-76
2024/02/25 05:42:31;;;;;;;5.88;2.65;;;8.60;56.60;;;;;;6285049;28;20444;-76
2024/02/25 05:45:32;;;;;;;5.53;2.72;;;8.60;56.70;;;;;;6300567;28;20029;-76
2024/02/25 05:48:34;;;;;;;4.82;2.22;;;8.50;56.70;;;;;;6286374;28;20032;-77
2024/02/25 05:52:31;;;;;;;4.72;3.00;;;8.50;56.70;;;;;;6292789;28;20020;-76
2024/02/25 05:55:32;;;;;;;5.38;2.88;;;8.50;56.70;;;;;;6294802;28;20024;-77
2024/02/25 05:58:37;;;;;;;4.47;2.60;;;8.50;56.70;;;;;;6300609;28;20119;-76
2024/02/25 06:01:38;;;;;;;5.80;1.95;;;8.50;56.80;;;;;;6307235;28;20031;-76
2024/02/25 06:04:39;;;;;;;3.00;2.45;;;8.50;56.90;;;;;;6312568;28;20108;-77
2024/02/25 06:07:40;;;;;;;5.80;3.28;;;8.50;57.10;;;;;;6296538;28;20394;-75
2024/02/25 06:10:42;;;;;;;4.93;2.20;;;8.40;57.10;;;;;;6290528;28;20028;-76
2024/02/25 06:13:43;;;;;;;3.28;1.80;;;8.40;57.20;;;;;;6304168;28;20016;-76
2024/02/25 06:16:44;;;;;;;4.80;2.53;;;8.30;57.30;;;;;;6296449;28;20037;-77
2024/02/25 06:19:46;;;;;;;6.18;2.28;;;8.30;57.50;;;;;;6295273;28;20020;-76
2024/02/25 06:22:48;;;;;;;5.57;3.20;;;8.30;57.60;;;;;;6298875;28;20023;-76
2024/02/25 06:25:49;;;;;;;2.85;1.33;;;8.20;57.70;;;;;;6300492;28;20054;-76
2024/02/25 06:28:54;;;;;;;6.30;2.70;;;8.20;58.10;;;;;;6288900;28;20032;-75
2024/02/25 06:31:57;;;;;;;7.20;1.85;;;8.10;58.10;;;;;;6305894;28;20084;-76
2024/02/25 06:34:59;;;;;;;7.85;2.50;;;8.00;58.30;;;;;;6304452;28;20044;-77
2024/02/25 06:38:13;;;;;;;2.67;2.05;;;8.00;58.30;;;;;;6277644;28;20460;-76
2024/02/25 06:41:18;;;;;;;3.65;1.88;;;8.10;58.90;;;;;;6301047;28;20140;-77
2024/02/25 06:44:19;;;;;;;4.00;1.90;;;8.10;58.20;;;;;;6308888;28;20889;-76
2024/02/25 06:47:20;;;;;;;8.27;1.60;;;8.20;58.10;;;;;;6288962;28;20021;-76
2024/02/25 06:50:22;;;;;;;4.75;1.95;;;8.20;57.90;;;;;;6281394;28;20030;-76
2024/02/25 06:53:23;;;;;;;3.65;2.17;;;8.30;57.70;;;;;;6306751;28;20020;-76
2024/02/25 06:56:29;;;;;;;5.57;2.60;;;8.30;57.60;;;;;;6309231;28;20032;-77
2024/02/25 06:59:29;;;;;;;4.22;2.13;;;8.30;57.40;;;;;;6298398;28;20028;-78
2024/02/25 07:02:30;;;;;;;3.20;1.70;;;8.40;57.30;;;;;;6309238;28;20023;-76
2024/02/25 07:05:31;;;;;;;8.10;2.72;;;8.40;57.20;;;;;;6288930;28;20198;-76
2024/02/25 07:08:33;;;;;;;3.85;2.00;;;8.40;57.20;;;;;;6285700;28;20028;-76
2024/02/25 07:11:34;;;;;;;5.75;2.00;;;8.50;57.10;;;;;;6307635;28;20116;-77
2024/02/25 07:14:35;;;;;;;2.75;1.80;;;8.60;57.00;;;;;;6286503;28;20029;-74
2024/02/25 07:18:02;;;;;;;3.38;1.95;;;8.60;56.80;;;;;;6291175;28;20024;-77
2024/02/25 07:21:09;;;;;;;5.43;2.03;;;8.70;56.70;;;;;;6283503;28;20386;-76
2024/02/25 07:24:10;;;;;;;5.97;2.10;;;8.70;56.40;;;;;;6291095;28;20016;-76
2024/02/25 07:27:11;;;;;;;3.33;1.73;;;8.80;56.40;;;;;;6297086;28;20107;-77
2024/02/25 07:30:12;;;;;;;10.73;2.00;;;8.90;56.30;;;;;;6305786;28;20032;-77
2024/02/25 07:33:13;;;;;;;3.45;1.88;;;9.10;56.00;;;;;;6291513;28;20092;-76
2024/02/25 07:36:16;;;;;;;7.63;2.20;;;9.20;55.80;;;;;;6275475;28;20052;-77
2024/02/25 07:39:17;;;;;;;7.25;2.10;;;9.40;55.60;;;;;;6299636;28;20055;-76
2024/02/25 07:42:23;;;;;;;5.18;1.98;;;9.50;55.40;;;;;;6294293;28;20073;-78
2024/02/25 07:45:24;;;;;;;2.58;1.83;;;9.60;55.20;;;;;;6309160;28;20024;-77
2024/02/25 07:48:26;;;;;;;4.28;2.05;;;9.80;55.00;;;;;;6298467;28;20040;-76
2024/02/25 07:51:27;;;;;;;6.13;2.08;;;9.80;54.70;;;;;;6295970;28;20047;-77
2024/02/25 07:54:28;;;;;;;2.50;1.35;;;10.00;54.60;;;;;;6283944;28;20116;-77
2024/02/25 07:57:33;;;;;;;5.38;2.05;;;10.00;54.80;;;;;;6295288;28;20032;-77
2024/02/25 08:00:35;;;;;;;6.05;2.38;;;10.10;53.90;;;;;;6295252;28;20503;-76
2024/02/25 08:03:36;;;;;;;4.57;2.47;;;10.20;53.90;;;;;;6308129;28;20119;-76
2024/02/25 08:06:37;;;;;;;5.22;2.53;;;10.20;53.70;;;;;;6305876;28;20028;-75
2024/02/25 08:09:37;;;;;;;3.72;2.00;;;10.30;53.50;;;;;;6289939;28;20035;-77
2024/02/25 08:12:39;;;;;;;4.07;1.55;;;10.40;53.20;;;;;;6290558;28;20141;-78
2024/02/25 08:15:40;;;;;;;2.30;1.70;;;10.40;53.00;;;;;;6307565;28;20036;-76
2024/02/25 08:18:46;;;;;;;3.25;1.92;;;10.50;52.90;;;;;;6271908;28;20056;-77
2024/02/25 08:21:49;;;;;;;6.20;1.25;;;10.50;52.70;;;;;;6294998;28;20017;-77
2024/02/25 08:24:52;;;;;;;2.33;1.50;;;10.60;52.50;;;;;;6250127;28;20071;-77
2024/02/25 08:27:54;;;;;;;7.35;2.08;;;10.60;52.40;;;;;;6295364;28;20032;-77
2024/02/25 08:30:55;;;;;;;7.35;1.80;;;10.70;52.30;;;;;;6290419;28;20470;-77
2024/02/25 08:33:57;;;;;;;5.40;2.45;;;10.80;52.10;;;;;;6286282;28;20031;-77
2024/02/25 08:36:58;;;;;;;3.20;1.67;;;10.90;51.90;;;;;;6285641;28;20118;-77
2024/02/25 08:39:59;;;;;;;3.10;1.60;;;11.00;51.70;;;;;;6306291;28;20489;-76
2024/02/25 08:43:00;;;;;;;2.97;1.48;;;11.00;51.30;;;;;;6300281;28;20040;-77
2024/02/25 08:46:02;;;;;;;2.30;1.55;;;11.20;51.00;;;;;;6287894;28;20134;-77
2024/02/25 08:49:02;;;;;;;7.80;1.38;;;11.20;50.70;;;;;;6286268;28;20028;-77
2024/02/25 08:52:04;;;;;;;5.72;1.92;;;11.30;50.60;;;;;;6289026;28;20558;-77
2024/02/25 08:55:07;;;;;;;2.60;1.27;;;11.50;50.40;;;;;;6311032;28;20046;-78
2024/02/25 08:58:08;;;;;;;3.28;1.33;;;11.60;49.70;;;;;;6294818;28;20178;-77
2024/02/25 09:01:11;;;;;;;6.15;1.25;;;11.80;49.20;;;;;;6303195;28;20425;-76
2024/02/25 09:04:13;;;;;;;4.40;1.83;;;12.00;48.90;;;;;;6303300;28;20025;-77
2024/02/25 09:07:14;;;;;;;3.50;1.00;;;12.10;48.70;;;;;;6289718;28;20089;-76
2024/02/25 09:10:18;;;;;;;1.75;1.23;;;12.30;48.10;;;;;;6287198;28;20026;-77
2024/02/25 09:13:19;;;;;;;3.15;1.02;;;12.40;47.30;;;;;;6292264;28;20376;-76
2024/02/25 09:16:21;;;;;;;12.52;1.13;;;12.50;47.10;;;;;;6310059;28;20036;-78
2024/02/25 09:19:37;;;;;;;3.30;1.20;;;12.60;47.00;;;;;;6311799;28;20016;-76
2024/02/25 09:22:38;;;;;;;1.15;0.85;;;12.60;46.70;;;;;;6271744;28;20028;-77
2024/02/25 09:25:41;;;;;;;2.00;0.98;;;12.60;46.60;;;;;;6292309;28;20132;-76
2024/02/25 09:28:43;;;;;;;5.40;1.80;;;12.70;46.20;;;;;;6308693;28;20083;-79
2024/02/25 09:31:44;;;;;;;2.58;1.15;;;12.80;46.10;;;;;;6300297;28;20053;-77
2024/02/25 09:34:45;;;;;;;2.00;1.17;;;12.80;45.90;;;;;;6304691;28;20097;-76
2024/02/25 09:37:46;;;;;;;2.85;0.90;;;12.90;45.90;;;;;;6304525;28;20452;-77
2024/02/25 09:40:47;;;;;;;1.83;1.02;;;13.00;45.50;;;;;;6305119;28;20217;-80
2024/02/25 09:43:51;;;;;;;2.55;1.13;;;13.10;45.20;;;;;;6283773;28;20019;-77
2024/02/25 09:46:56;;;;;;;2.85;0.90;;;13.10;44.70;;;;;;6290839;28;20329;-76
2024/02/25 09:49:57;;;;;;;1.27;1.00;;;13.30;44.60;;;;;;6305987;28;20051;-77
2024/02/25 09:52:59;;;;;;;2.47;1.10;;;13.40;44.10;;;;;;6297538;28;20028;-79
2024/02/25 09:56:02;;;;;;;1.92;1.20;;;13.50;43.80;;;;;;6297629;28;20123;-77
2024/02/25 09:59:04;;;;;;;3.38;2.13;;;13.70;43.60;;;;;;6292004;28;20051;-77
2024/02/25 10:02:08;;;;;;;2.83;1.73;;;13.70;43.50;;;;;;6288057;28;20461;-77
2024/02/25 10:05:14;;;;;;;6.60;2.03;;;13.80;43.90;;;;;;6290930;28;20020;-77
2024/02/25 10:08:17;;;;;;;4.55;2.60;;;13.70;43.90;;;;;;6285220;28;20051;-77
2024/02/25 10:11:18;;;;;;;16.08;2.67;;;13.70;44.20;;;;;;6307361;28;20073;-78
2024/02/25 10:14:19;;;;;;;2.40;1.73;;;13.80;44.10;;;;;;6287527;28;20161;-78
2024/02/25 10:17:22;;;;;;;2.38;1.17;;;14.00;44.10;;;;;;6292779;28;20132;-78
2024/02/25 10:20:24;;;;;;;4.22;1.27;;;14.20;43.50;;;;;;6281935;28;20067;-77
2024/02/25 10:23:27;;;;;;;6.63;1.90;;;14.40;42.90;;;;;;6291545;28;20038;-79
2024/02/25 10:26:29;;;;;;;1.77;0.70;;;14.70;42.50;;;;;;6290386;28;20088;-77
2024/02/25 10:29:30;;;;;;;0.47;0.22;;;14.90;42.00;;;;;;6296735;28;20089;-78
2024/02/25 10:32:35;;;;;;;0.22;0.10;;;15.20;38.30;;;;;;6294928;28;20031;-77
2024/02/25 10:35:38;;;;;;;5.90;0.30;;;15.40;36.70;;;;;;6297347;28;20032;-76
2024/02/25 10:38:41;;;;;;;0.20;0.20;;;15.70;34.80;;;;;;6290996;28;20089;-78
2024/02/25 10:41:44;;;;;;;1.55;0.45;;;16.00;34.20;;;;;;6299595;28;20020;-77
2024/02/25 10:44:46;;;;;;;0.10;0.10;;;16.30;33.20;;;;;;6290501;28;20100;-77
2024/02/25 10:47:47;;;;;;;0.10;0.10;;;16.50;31.30;;;;;;6295992;28;20076;-78
2024/02/25 10:50:51;;;;;;;1.15;0.28;;;16.60;31.40;;;;;;6294112;28;20122;-77
2024/02/25 10:53:53;;;;;;;0.20;0.20;;;16.70;31.70;;;;;;6298893;28;20088;-77
2024/02/25 10:56:56;;;;;;;0.52;0.20;;;16.90;31.60;;;;;;6284238;28;20044;-78
2024/02/25 10:59:58;;;;;;;0.20;0.20;;;17.20;31.60;;;;;;6278284;28;20107;-76
2024/02/25 11:03:00;;;;;;;0.28;0.20;;;17.20;30.60;;;;;;6303088;28;20031;-79
2024/02/25 11:06:01;;;;;;;0.30;0.30;;;17.40;30.30;;;;;;6315355;28;20050;-76
2024/02/25 11:09:10;;;;;;;0.15;0.15;;;17.40;30.10;;;;;;6303823;28;20020;-78
2024/02/25 11:12:25;;;;;;;0.30;0.30;;;17.50;30.40;;;;;;6309013;28;20036;-78
2024/02/25 11:15:28;;;;;;;0.32;0.10;;;17.80;30.30;;;;;;6316839;28;20177;-76
2024/02/25 11:18:31;;;;;;;1.58;0.50;;;17.70;29.60;;;;;;6294766;28;20027;-78
2024/02/25 11:21:33;;;;;;;0.55;0.40;;;17.70;29.80;;;;;;6292737;28;20008;-78
2024/02/25 11:24:47;;;;;;;0.28;0.28;;;17.90;29.90;;;;;;6274900;28;20028;-78
2024/02/25 11:27:59;;;;;;;0.52;0.40;;;18.20;29.70;;;;;;6309135;28;20107;-79
2024/02/25 11:31:02;;;;;;;0.50;0.40;;;18.50;29.10;;;;;;6286505;28;20017;-78
2024/02/25 11:34:04;;;;;;;0.30;0.20;;;18.60;28.50;;;;;;6294861;28;20016;-78
2024/02/25 11:37:06;;;;;;;0.68;0.20;;;18.70;28.30;;;;;;6291792;28;20127;-79
2024/02/25 11:40:09;;;;;;;0.10;0.10;;;18.90;28.30;;;;;;6293783;28;20035;-78
2024/02/25 11:43:11;;;;;;;0.20;0.20;;;19.00;28.10;;;;;;6277591;28;20107;-78
2024/02/25 11:46:14;;;;;;;0.50;0.20;;;19.00;28.20;;;;;;6299392;28;20035;-78
2024/02/25 11:49:15;;;;;;;2.50;0.90;;;19.20;28.20;;;;;;6290298;28;20020;-78
2024/02/25 11:52:17;;;;;;;0.70;0.32;;;19.10;28.10;;;;;;6287157;28;20055;-79
2024/02/25 11:55:18;;;;;;;1.38;0.47;;;19.20;28.20;;;;;;6266837;28;20072;-78
2024/02/25 11:58:20;;;;;;;0.52;0.20;;;19.30;27.90;;;;;;6304888;28;20060;-77
2024/02/25 12:01:22;;;;;;;0.20;0.20;;;19.30;28.10;;;;;;6304119;28;20048;-78
2024/02/25 12:04:23;;;;;;;1.77;0.82;;;19.40;27.50;;;;;;6323537;28;20550;-77
2024/02/25 12:07:25;;;;;;;0.73;0.55;;;19.30;27.10;;;;;;6305815;28;20027;-78
2024/02/25 12:10:27;;;;;;;0.43;0.20;;;19.20;26.90;;;;;;6306150;28;20117;-77
2024/02/25 12:13:28;;;;;;;0.68;0.10;;;19.20;27.30;;;;;;6302826;28;20081;-77
2024/02/25 12:16:34;;;;;;;0.73;0.55;;;19.30;27.40;;;;;;6289565;28;20036;-78
2024/02/25 12:19:35;;;;;;;0.40;0.32;;;19.30;27.30;;;;;;6302221;28;20016;-77
2024/02/25 12:22:40;;;;;;;0.28;0.20;;;19.10;26.90;;;;;;6289008;28;20144;-78
2024/02/25 12:25:43;;;;;;;3.60;0.50;;;18.90;27.20;;;;;;6300912;28;20115;-78
2024/02/25 12:28:44;;;;;;;1.23;0.22;;;18.70;27.30;;;;;;6290666;28;20031;-77
2024/02/25 12:31:45;;;;;;;0.32;0.30;;;18.70;28.00;;;;;;6291164;28;20048;-78
2024/02/25 12:34:47;;;;;;;5.57;0.60;;;18.70;27.60;;;;;;6261282;28;20103;-78
2024/02/25 12:37:49;;;;;;;0.50;0.35;;;19.00;27.80;;;;;;6305790;28;20119;-77
2024/02/25 12:40:54;;;;;;;1.35;0.52;;;19.20;27.50;;;;;;6287860;28;20024;-78
2024/02/25 12:43:55;;;;;;;0.57;0.40;;;19.20;27.20;;;;;;6292086;28;20073;-77
2024/02/25 12:46:57;;;;;;;0.20;0.17;;;19.20;26.80;;;;;;6295379;28;20020;-78
2024/02/25 12:50:00;;;;;;;0.40;0.30;;;19.10;26.80;;;;;;6311912;28;20118;-78
2024/02/25 12:53:02;;;;;;;0.10;0.10;;;19.10;26.50;;;;;;6295910;28;20039;-77
2024/02/25 12:56:04;;;;;;;0.50;0.20;;;19.00;26.60;;;;;;6288518;28;20029;-77
2024/02/25 12:59:07;;;;;;;1.98;0.35;;;18.90;26.20;;;;;;6293306;28;20103;-78
2024/02/25 13:02:08;;;;;;;0.20;0.20;;;18.90;26.50;;;;;;6310118;28;20328;-77
2024/02/25 13:05:09;;;;;;;2.35;0.20;;;18.80;26.40;;;;;;6311736;28;20066;-77
2024/02/25 13:08:11;;;;;;;0.28;0.20;;;18.70;26.30;;;;;;6276232;28;20412;-78
2024/02/25 13:11:15;;;;;;;0.90;0.28;;;18.50;26.20;;;;;;6308223;28;20106;-77
2024/02/25 13:14:41;;;;;;;0.10;0.10;;;18.30;26.30;;;;;;6303716;28;20066;-76
2024/02/25 13:18:07;;;;;;;;;;;18.20;26.90;;;;;;6311323;28;20047;-77
2024/02/25 13:21:08;;;;;;;1.45;0.20;;;18.20;26.90;;;;;;6293769;28;19962;-77
2024/02/25 13:24:09;;;;;;;1.05;0.13;;;18.20;26.90;;;;;;6294210;28;20089;-76
2024/02/25 13:27:13;;;;;;;0.90;0.22;;;18.20;26.90;;;;;;6310387;28;20016;-77
2024/02/25 13:30:14;;;;;;;0.80;0.35;;;18.20;27.10;;;;;;6310524;28;20039;-79
2024/02/25 13:33:16;;;;;;;0.10;0.10;;;18.20;27.20;;;;;;6296164;28;20032;-77
2024/02/25 13:36:19;;;;;;;0.22;0.22;;;18.10;27.20;;;;;;6287337;28;20155;-77
2024/02/25 13:39:20;;;;;;;0.40;0.20;;;18.10;27.20;;;;;;6308595;28;20157;-77
2024/02/25 13:42:21;;;;;;;0.13;0.10;;;18.10;27.30;;;;;;6319302;28;20584;-76
2024/02/25 13:45:23;;;;;;;0.10;0.10;;;17.90;27.40;;;;;;6271009;28;20028;-78
2024/02/25 13:48:27;;;;;;;1.33;0.32;;;17.90;27.60;;;;;;6303559;28;20047;-75
2024/02/25 13:51:29;;;;;;;0.10;0.10;;;17.90;27.80;;;;;;6303110;28;20028;-75
2024/02/25 13:54:30;;;;;;;0.17;0.17;;;17.80;27.80;;;;;;6303868;28;20036;-76
2024/02/25 13:57:31;;;;;;;1.00;0.15;;;17.80;28.00;;;;;;6288416;28;20043;-78
2024/02/25 14:00:33;;;;;;;0.80;0.22;;;17.70;28.20;;;;;;6290566;28;20051;-78
2024/02/25 14:03:34;;;;;;;0.93;0.30;;;17.70;28.40;;;;;;6296066;28;20341;-76
2024/02/25 14:06:36;;;;;;;0.00;0.00;;;17.60;28.50;;;;;;6285854;28;20106;-77
2024/02/25 14:09:38;;;;;;;0.90;0.15;;;17.50;28.70;;;;;;6306728;28;20020;-75
2024/02/25 14:12:43;;;;;;;1.15;0.30;;;17.50;29.00;;;;;;6308403;28;20063;-76
2024/02/25 14:15:45;;;;;;;0.10;0.10;;;17.50;29.20;;;;;;6302211;28;20039;-79
2024/02/25 14:18:48;;;;;;;0.43;0.28;;;17.50;29.20;;;;;;6294338;28;20032;-77
2024/02/25 14:21:49;;;;;;;0.63;0.30;;;17.50;29.40;;;;;;6294473;28;20020;-77
2024/02/25 14:24:50;;;;;;;0.77;0.10;;;17.60;29.40;;;;;;6301013;28;20185;-77
2024/02/25 14:27:51;;;;;;;0.68;0.40;;;17.60;29.40;;;;;;6303812;28;20013;-76
2024/02/25 14:30:52;;;;;;;1.23;0.47;;;17.70;29.40;;;;;;6307667;28;20119;-78
2024/02/25 14:33:53;;;;;;;0.75;0.20;;;17.70;29.50;;;;;;6308286;28;20073;-76
2024/02/25 14:36:54;;;;;;;1.30;0.28;;;17.60;29.60;;;;;;6301010;28;20028;-76
2024/02/25 14:39:55;;;;;;;0.73;0.30;;;17.50;29.70;;;;;;6294296;28;20073;-75
2024/02/25 14:42:56;;;;;;;0.40;0.13;;;17.50;29.80;;;;;;6304052;28;20062;-76
2024/02/25 14:45:59;;;;;;;0.10;0.10;;;17.50;29.80;;;;;;6282721;28;20044;-76
2024/02/25 14:49:01;;;;;;;0.30;0.20;;;17.50;29.80;;;;;;6306598;28;20016;-76
2024/02/25 14:52:03;;;;;;;0.20;0.15;;;17.50;29.80;;;;;;6296606;28;20031;-75
2024/02/25 14:55:05;;;;;;;0.20;0.20;;;17.60;29.90;;;;;;6289531;28;20060;-76
2024/02/25 14:58:06;;;;;;;0.28;0.28;;;17.50;29.90;;;;;;6288677;28;20123;-77
2024/02/25 15:01:08;;;;;;;0.57;0.40;;;17.50;29.80;;;;;;6306937;28;20132;-77
2024/02/25 15:04:10;;;;;;;0.25;0.25;;;17.70;29.90;;;;;;6304627;28;20027;-76
2024/02/25 15:07:11;;;;;;;0.20;0.20;;;17.50;29.80;;;;;;6299561;28;20433;-75
2024/02/25 15:10:13;;;;;;;0.65;0.40;;;17.50;29.80;;;;;;6302212;28;20135;-77
2024/02/25 15:13:14;;;;;;;4.53;0.30;;;17.50;29.80;;;;;;6299214;28;20048;-76
2024/02/25 15:16:15;;;;;;;0.45;0.32;;;17.40;29.80;;;;;;6302619;28;20130;-76
2024/02/25 15:19:18;;;;;;;0.35;0.30;;;17.40;29.80;;;;;;6307971;28;20119;-76
2024/02/25 15:22:19;;;;;;;0.80;0.40;;;17.40;29.80;;;;;;6307759;28;20024;-75
2024/02/25 15:25:21;;;;;;;0.43;0.28;;;17.40;29.90;;;;;;6307582;28;20213;-77
2024/02/25 15:28:22;;;;;;;3.72;0.50;;;17.40;29.80;;;;;;6300938;28;20458;-77
2024/02/25 15:31:23;;;;;;;1.40;0.40;;;17.30;29.80;;;;;;6309158;28;20070;-78
2024/02/25 15:34:24;;;;;;;0.47;0.28;;;17.20;30.00;;;;;;6307253;28;20459;-77
2024/02/25 15:37:24;;;;;;;1.85;1.15;;;17.20;30.00;;;;;;6280916;28;20038;-77
2024/02/25 15:40:26;;;;;;;0.63;0.40;;;17.10;30.10;;;;;;6318928;28;20515;-75
2024/02/25 15:43:27;;;;;;;3.13;0.80;;;17.00;30.30;;;;;;6307995;28;20009;-78
2024/02/25 15:46:29;;;;;;;0.20;0.20;;;17.00;30.60;;;;;;6300347;28;20021;-77
2024/02/25 15:49:30;;;;;;;1.33;0.40;;;16.90;30.70;;;;;;6300234;28;20047;-77
2024/02/25 15:52:33;;;;;;;0.35;0.35;;;16.90;30.90;;;;;;6299799;28;20021;-76
2024/02/25 15:55:36;;;;;;;1.10;0.20;;;16.90;31.20;;;;;;6304756;28;20012;-75